createdAt,value
2023-02-04T00:00:37.513Z,0.30
2023-02-04T00:03:06.421Z,0.38
2023-02-04T00:05:35.429Z,0.44
2023-02-04T00:08:06.630Z,0.47
2023-02-04T00:10:36.517Z,0.51
2023-02-04T00:13:04.929Z,0.56
2023-02-04T00:15:36.512Z,0.61
2023-02-04T00:18:05.705Z,0.70
2023-02-04T00:20:34.001Z,0.81
2023-02-04T00:23:01.988Z,0.91
2023-02-04T00:25:30.214Z,1.01
2023-02-04T00:27:58.715Z,1.11
2023-02-04T00:30:26.962Z,1.19
2023-02-04T00:32:56.665Z,1.26
2023-02-04T00:35:24.766Z,1.31
2023-02-04T00:37:53.595Z,1.34
2023-02-04T00:40:21.672Z,1.39
2023-02-04T00:42:49.985Z,1.44
2023-02-04T00:45:18.362Z,1.49
2023-02-04T00:47:46.530Z,1.52
2023-02-04T00:50:15.330Z,1.56
2023-02-04T00:52:45.035Z,1.58
2023-02-04T00:55:13.715Z,1.61
2023-02-04T00:57:41.829Z,1.64
2023-02-04T01:00:11.289Z,1.66
2023-02-04T01:02:40.893Z,1.67
2023-02-04T01:05:09.226Z,1.67
2023-02-04T01:07:40.761Z,1.66
2023-02-04T01:10:10.344Z,1.68
2023-02-04T01:12:38.680Z,1.71
2023-02-04T01:15:07.944Z,1.72
2023-02-04T01:17:36.276Z,1.73
2023-02-04T01:20:04.675Z,1.76
2023-02-04T01:22:33.262Z,1.79
2023-02-04T01:25:01.430Z,1.82
2023-02-04T01:27:44.602Z,1.84
2023-02-04T01:30:13.451Z,1.86
2023-02-04T01:32:41.911Z,1.86
2023-02-04T01:35:10.736Z,1.86
2023-02-04T01:37:40.136Z,1.85
2023-02-04T01:40:10.401Z,1.85
2023-02-04T01:42:38.746Z,1.85
2023-02-04T01:45:06.991Z,1.85
2023-02-04T01:47:35.784Z,1.84
2023-02-04T01:50:04.039Z,1.82
2023-02-04T01:52:35.271Z,1.81
2023-02-04T01:55:03.396Z,1.82
2023-02-04T01:57:31.962Z,1.82
2023-02-04T02:00:00.239Z,1.80
2023-02-04T02:02:42.582Z,1.77
2023-02-04T02:05:13.273Z,1.75
2023-02-04T02:07:42.909Z,1.75
2023-02-04T02:10:11.894Z,1.76
2023-02-04T02:12:39.793Z,1.76
2023-02-04T02:15:09.140Z,1.74
2023-02-04T02:17:38.133Z,1.71
2023-02-04T02:20:07.844Z,1.70
2023-02-04T02:22:44.838Z,1.65
2023-02-04T02:25:13.596Z,1.57
2023-02-04T02:27:44.458Z,1.55
2023-02-04T02:30:15.158Z,1.54
2023-02-04T02:32:45.065Z,1.55
2023-02-04T02:35:13.251Z,1.56
2023-02-04T02:37:41.835Z,1.61
2023-02-04T02:40:10.675Z,1.64
2023-02-04T02:42:43.457Z,1.66
2023-02-04T02:45:20.670Z,1.70
2023-02-04T02:47:48.993Z,1.73
2023-02-04T02:50:18.762Z,1.76
2023-02-04T02:52:47.589Z,1.78
2023-02-04T02:55:17.298Z,1.79
2023-02-04T02:57:46.782Z,1.81
2023-02-04T03:00:19.309Z,1.83
2023-02-04T03:02:53.876Z,1.86
2023-02-04T03:05:22.066Z,1.89
2023-02-04T03:07:50.447Z,1.91
2023-02-04T03:10:18.751Z,1.94
2023-02-04T03:12:46.996Z,1.93
2023-02-04T03:15:15.172Z,1.93
2023-02-04T03:17:43.343Z,1.91
2023-02-04T03:20:12.234Z,1.89
2023-02-04T03:22:40.664Z,1.89
2023-02-04T03:25:08.890Z,1.88
2023-02-04T03:27:38.431Z,1.89
2023-02-04T03:30:08.809Z,1.90
2023-02-04T03:32:37.189Z,1.92
2023-02-04T03:35:05.866Z,1.92
2023-02-04T03:37:34.998Z,1.93
2023-02-04T03:40:03.470Z,1.94
2023-02-04T03:42:32.676Z,1.94
2023-02-04T03:45:00.853Z,1.92
2023-02-04T03:47:29.114Z,1.92
2023-02-04T03:49:57.441Z,1.91
2023-02-04T03:52:25.504Z,1.90
2023-02-04T03:54:53.589Z,1.89
2023-02-04T03:57:21.818Z,1.88
2023-02-04T03:59:50.009Z,1.86
2023-02-04T04:02:18.056Z,1.84
2023-02-04T04:04:46.126Z,1.83
2023-02-04T04:07:14.332Z,1.83
2023-02-04T04:09:42.985Z,1.83
2023-02-04T04:12:11.165Z,1.85
2023-02-04T04:14:40.526Z,1.89
2023-02-04T04:17:08.759Z,1.92
2023-02-04T04:19:36.862Z,1.92
2023-02-04T04:22:05.096Z,1.92
2023-02-04T04:24:33.660Z,1.92
2023-02-04T04:27:01.950Z,1.92
2023-02-04T04:29:30.525Z,1.90
2023-02-04T04:31:58.714Z,1.88
2023-02-04T04:34:26.806Z,1.85
2023-02-04T04:36:55.044Z,1.84
2023-02-04T04:39:23.112Z,1.83
2023-02-04T04:41:51.249Z,1.83
2023-02-04T04:44:19.294Z,1.84
2023-02-04T04:46:47.594Z,1.85
2023-02-04T04:49:16.623Z,1.86
2023-02-04T04:51:45.031Z,1.87
2023-02-04T04:54:13.210Z,1.88
2023-02-04T04:56:41.488Z,1.87
2023-02-04T04:59:10.147Z,1.85
2023-02-04T05:01:38.261Z,1.85
2023-02-04T05:04:06.455Z,1.87
2023-02-04T05:06:35.138Z,1.88
2023-02-04T05:09:03.348Z,1.88
2023-02-04T05:11:32.671Z,1.86
2023-02-04T05:14:00.657Z,1.87
2023-02-04T05:16:29.204Z,1.85
2023-02-04T05:18:57.417Z,1.83
2023-02-04T05:21:25.385Z,1.82
2023-02-04T05:23:53.378Z,1.82
2023-02-04T05:26:29.763Z,1.84
2023-02-04T05:29:01.356Z,1.84
2023-02-04T05:31:29.636Z,1.85
2023-02-04T05:33:57.999Z,1.89
2023-02-04T05:36:26.111Z,1.89
2023-02-04T05:38:54.354Z,1.87
2023-02-04T05:41:22.618Z,1.86
2023-02-04T05:43:51.031Z,1.87
2023-02-04T05:46:19.138Z,1.88
2023-02-04T05:48:47.243Z,1.88
2023-02-04T05:51:15.350Z,1.88
2023-02-04T05:53:43.485Z,1.87
2023-02-04T05:56:11.555Z,1.88
2023-02-04T05:58:40.068Z,1.88
2023-02-04T06:01:08.192Z,1.87
2023-02-04T06:03:37.140Z,1.87
2023-02-04T06:06:05.437Z,1.89
2023-02-04T06:08:33.694Z,1.89
2023-02-04T06:11:01.827Z,1.87
2023-02-04T06:13:30.001Z,1.86
2023-02-04T06:15:58.071Z,1.87
2023-02-04T06:18:27.653Z,1.90
2023-02-04T06:20:55.732Z,1.90
2023-02-04T06:23:23.810Z,1.91
2023-02-04T06:25:52.638Z,1.92
2023-02-04T06:28:20.796Z,1.93
2023-02-04T06:30:49.721Z,1.94
2023-02-04T06:33:17.818Z,1.92
2023-02-04T06:35:47.376Z,1.91
2023-02-04T06:38:15.457Z,1.93
2023-02-04T06:40:43.596Z,1.94
2023-02-04T06:43:11.933Z,1.97
2023-02-04T06:45:40.114Z,2.00
2023-02-04T06:48:08.897Z,2.03
2023-02-04T06:50:38.642Z,2.05
2023-02-04T06:53:06.864Z,2.07
2023-02-04T06:55:36.414Z,2.10
2023-02-04T06:58:05.061Z,2.12
2023-02-04T07:00:35.252Z,2.12
2023-02-04T07:03:03.525Z,2.11
2023-02-04T07:05:34.802Z,2.08
2023-02-04T07:08:02.913Z,2.07
2023-02-04T07:10:32.890Z,2.07
2023-02-04T07:13:21.029Z,2.08
2023-02-04T07:15:49.817Z,2.09
2023-02-04T07:18:18.249Z,2.12
2023-02-04T07:20:48.750Z,2.12
2023-02-04T07:23:16.953Z,2.13
2023-02-04T07:25:45.136Z,2.13
2023-02-04T07:28:13.219Z,2.15
2023-02-04T07:30:41.503Z,2.15
2023-02-04T07:33:09.604Z,2.15
2023-02-04T07:35:40.696Z,2.15
2023-02-04T07:38:08.876Z,2.15
2023-02-04T07:40:36.954Z,2.14
2023-02-04T07:43:05.502Z,2.11
2023-02-04T07:45:34.710Z,2.13
2023-02-04T07:48:03.594Z,2.15
2023-02-04T07:50:32.528Z,2.18
2023-02-04T07:53:01.012Z,2.21
2023-02-04T07:55:29.334Z,2.23
2023-02-04T07:57:57.439Z,2.26
2023-02-04T08:00:25.676Z,2.29
2023-02-04T08:02:54.780Z,2.32
2023-02-04T08:05:23.170Z,2.36
2023-02-04T08:07:51.865Z,2.39
2023-02-04T08:10:21.573Z,2.41
2023-02-04T08:12:50.046Z,2.41
2023-02-04T08:15:18.298Z,2.45
2023-02-04T08:17:47.099Z,2.45
2023-02-04T08:20:16.732Z,2.45
2023-02-04T08:22:46.212Z,2.44
2023-02-04T08:25:14.718Z,2.45
2023-02-04T08:27:44.218Z,2.48
2023-02-04T08:30:13.510Z,2.49
2023-02-04T08:32:43.999Z,2.47
2023-02-04T08:35:12.829Z,2.48
2023-02-04T08:37:41.105Z,2.49
2023-02-04T08:40:10.155Z,2.51
2023-02-04T08:42:39.585Z,2.54
2023-02-04T08:45:08.128Z,2.54
2023-02-04T08:47:36.643Z,2.54
2023-02-04T08:50:04.932Z,2.53
2023-02-04T08:52:33.327Z,2.53
2023-02-04T08:55:01.406Z,2.53
2023-02-04T08:57:30.072Z,2.54
2023-02-04T08:59:58.270Z,2.57
2023-02-04T09:02:26.378Z,2.59
2023-02-04T09:04:54.722Z,2.59
2023-02-04T09:07:23.022Z,2.57
2023-02-04T09:09:51.290Z,2.55
2023-02-04T09:13:14.417Z,2.55
2023-02-04T09:15:42.526Z,2.55
2023-02-04T09:18:22.063Z,2.57
2023-02-04T09:20:50.857Z,2.60
2023-02-04T09:23:19.325Z,2.65
2023-02-04T09:25:47.697Z,2.69
2023-02-04T09:28:17.224Z,2.71
2023-02-04T09:30:46.440Z,2.73
2023-02-04T09:33:15.173Z,2.76
2023-02-04T09:35:43.217Z,2.79
2023-02-04T09:38:11.316Z,2.82
2023-02-04T09:40:50.138Z,2.85
2023-02-04T09:43:21.531Z,2.87
2023-02-04T09:45:49.755Z,2.87
2023-02-04T09:48:17.879Z,2.89
2023-02-04T09:50:45.900Z,2.91
2023-02-04T09:53:16.126Z,2.94
2023-02-04T09:55:45.542Z,2.95
2023-02-04T09:58:23.299Z,2.96
2023-02-04T10:01:06.110Z,2.98
2023-02-04T10:03:35.486Z,3.03
2023-02-04T10:06:04.663Z,3.08
2023-02-04T10:08:33.318Z,3.12
2023-02-04T10:11:01.537Z,3.17
2023-02-04T10:13:34.394Z,3.20
2023-02-04T10:16:02.559Z,3.24
2023-02-04T10:18:32.830Z,3.27
2023-02-04T10:21:11.807Z,3.30
2023-02-04T10:23:42.143Z,3.33
2023-02-04T10:26:11.798Z,3.36
2023-02-04T10:28:40.453Z,3.38
2023-02-04T10:31:30.859Z,3.39
2023-02-04T10:34:04.261Z,3.38
2023-02-04T10:36:33.766Z,3.35
2023-02-04T10:39:07.306Z,3.37
2023-02-04T10:41:40.100Z,3.42
2023-02-04T10:44:10.927Z,3.46
2023-02-04T10:46:38.993Z,3.48
2023-02-04T10:49:22.065Z,3.50
2023-02-04T10:51:51.551Z,3.47
2023-02-04T10:54:30.572Z,3.44
2023-02-04T10:57:15.608Z,3.42
2023-02-04T10:59:44.552Z,3.41
2023-02-04T11:02:44.219Z,3.41
2023-02-04T11:05:20.189Z,3.42
2023-02-04T11:07:48.811Z,3.43
2023-02-04T11:10:21.558Z,3.45
2023-02-04T11:12:56.013Z,3.51
2023-02-04T11:15:39.393Z,3.56
2023-02-04T11:18:12.703Z,3.61
2023-02-04T11:20:41.339Z,3.65
2023-02-04T11:23:32.250Z,3.66
2023-02-04T11:26:19.413Z,3.65
2023-02-04T11:28:59.792Z,3.64
2023-02-04T11:31:40.778Z,3.65
2023-02-04T11:34:14.375Z,3.66
2023-02-04T11:37:01.458Z,3.68
2023-02-04T11:39:34.622Z,3.70
2023-02-04T11:42:03.568Z,3.71
2023-02-04T11:44:33.057Z,3.73
2023-02-04T11:47:01.785Z,3.74
2023-02-04T11:49:30.450Z,3.73
2023-02-04T11:52:10.341Z,3.72
2023-02-04T11:54:39.426Z,3.73
2023-02-04T11:57:09.734Z,3.71
2023-02-04T11:59:42.171Z,3.68
2023-02-04T12:02:22.094Z,3.66
2023-02-04T12:04:57.930Z,3.65
2023-02-04T12:07:29.602Z,3.64
2023-02-04T12:09:57.729Z,3.64
2023-02-04T12:12:30.166Z,3.64
2023-02-04T12:15:04.694Z,3.66
2023-02-04T12:18:57.167Z,3.71
2023-02-04T12:21:24.139Z,3.71
2023-02-04T12:23:50.820Z,3.70
2023-02-04T12:26:17.389Z,3.69
2023-02-04T12:28:44.005Z,3.68
2023-02-04T12:31:10.904Z,3.67
2023-02-04T12:33:37.795Z,3.66
2023-02-04T12:36:05.231Z,3.64
2023-02-04T12:38:32.065Z,3.63
2023-02-04T12:40:58.831Z,3.59
2023-02-04T12:43:28.261Z,3.58
2023-02-04T12:45:55.259Z,3.54
2023-02-04T12:48:21.936Z,3.51
2023-02-04T12:50:48.795Z,3.48
2023-02-04T12:53:15.812Z,3.47
2023-02-04T12:55:43.137Z,3.47
2023-02-04T12:58:09.815Z,3.46
2023-02-04T13:00:36.912Z,3.45
2023-02-04T13:03:04.615Z,3.44
2023-02-04T13:05:31.746Z,3.43
2023-02-04T13:07:58.912Z,3.42
2023-02-04T13:10:25.662Z,3.42
2023-02-04T13:12:54.880Z,3.42
2023-02-04T13:15:21.589Z,3.40
2023-02-04T13:17:49.254Z,3.39
2023-02-04T13:20:17.100Z,3.38
2023-02-04T13:22:44.432Z,3.36
2023-02-04T13:25:11.196Z,3.33
2023-02-04T13:27:39.076Z,3.30
2023-02-04T13:30:06.839Z,3.28
2023-02-04T13:32:34.296Z,3.26
2023-02-04T13:35:01.755Z,3.23
2023-02-04T13:37:29.346Z,3.22
2023-02-04T13:39:56.054Z,3.21
2023-02-04T13:42:23.512Z,3.20
2023-02-04T13:44:50.520Z,3.20
2023-02-04T13:47:17.248Z,3.20
2023-02-04T13:49:44.146Z,3.20
2023-02-04T13:52:12.734Z,3.21
2023-02-04T13:54:39.893Z,3.21
2023-02-04T13:57:06.722Z,3.20
2023-02-04T13:59:33.573Z,3.20
2023-02-04T14:02:01.229Z,3.19
2023-02-04T14:04:28.585Z,3.18
2023-02-04T14:06:56.039Z,3.17
2023-02-04T14:09:24.734Z,3.17
2023-02-04T14:11:51.463Z,3.15
2023-02-04T14:14:18.848Z,3.12
2023-02-04T14:16:45.814Z,3.12
2023-02-04T14:19:13.850Z,3.12
2023-02-04T14:21:41.598Z,3.13
2023-02-04T14:24:08.878Z,3.13
2023-02-04T14:26:36.813Z,3.12
2023-02-04T14:29:04.174Z,3.12
2023-02-04T14:31:31.138Z,3.12
2023-02-04T14:33:58.688Z,3.12
2023-02-04T14:36:25.310Z,3.13
2023-02-04T14:38:51.969Z,3.11
2023-02-04T14:41:20.777Z,3.10
2023-02-04T14:43:47.460Z,3.11
2023-02-04T14:46:14.632Z,3.13
2023-02-04T14:48:41.506Z,3.12
2023-02-04T14:51:08.093Z,3.09
2023-02-04T14:53:34.677Z,3.09
2023-02-04T14:56:01.636Z,3.09
2023-02-04T14:58:28.716Z,3.10
2023-02-04T15:00:55.841Z,3.10
2023-02-04T15:03:22.847Z,3.09
2023-02-04T15:05:49.701Z,3.09
2023-02-04T15:08:17.135Z,3.06
2023-02-04T15:10:43.739Z,3.04
2023-02-04T15:13:10.825Z,3.00
2023-02-04T15:15:37.581Z,2.97
2023-02-04T15:18:04.508Z,2.98
2023-02-04T15:20:31.351Z,3.00
2023-02-04T15:23:00.597Z,3.01
2023-02-04T15:25:27.796Z,2.98
2023-02-04T15:27:54.695Z,2.97
2023-02-04T15:30:21.476Z,2.95
2023-02-04T15:32:48.567Z,2.90
2023-02-04T15:35:15.409Z,2.87
2023-02-04T15:37:42.429Z,2.87
2023-02-04T15:40:10.427Z,2.85
2023-02-04T15:42:37.568Z,2.86
2023-02-04T15:45:04.908Z,2.82
2023-02-04T15:47:32.146Z,2.78
2023-02-04T15:49:58.926Z,2.78
2023-02-04T15:52:26.633Z,2.77
2023-02-04T15:54:54.719Z,2.73
2023-02-04T15:57:21.277Z,2.74
2023-02-04T15:59:47.998Z,2.76
2023-02-04T16:02:15.299Z,2.79
2023-02-04T16:04:44.651Z,2.80
2023-02-04T16:07:11.559Z,2.79
2023-02-04T16:09:38.480Z,2.78
2023-02-04T16:12:05.509Z,2.76
2023-02-04T16:14:32.739Z,2.75
2023-02-04T16:17:01.304Z,2.74
2023-02-04T16:19:28.641Z,2.74
2023-02-04T16:21:55.783Z,2.71
2023-02-04T16:24:23.198Z,2.69
2023-02-04T16:26:50.229Z,2.68
2023-02-04T16:29:17.609Z,2.63
2023-02-04T16:31:44.837Z,2.58
2023-02-04T16:34:11.958Z,2.54
2023-02-04T16:36:38.726Z,2.53
2023-02-04T16:39:05.894Z,2.53
2023-02-04T16:41:32.689Z,2.49
2023-02-04T16:43:59.949Z,2.48
2023-02-04T16:46:28.097Z,2.48
2023-02-04T16:48:55.302Z,2.47
2023-02-04T16:51:24.182Z,2.48
2023-02-04T16:53:51.013Z,2.46
2023-02-04T16:56:17.755Z,2.43
2023-02-04T16:58:44.602Z,2.39
2023-02-04T17:01:11.750Z,2.39
2023-02-04T17:03:39.325Z,2.39
2023-02-04T17:06:06.752Z,2.35
2023-02-04T17:08:34.542Z,2.33
2023-02-04T17:11:20.022Z,2.35
2023-02-04T17:13:47.160Z,2.39
2023-02-04T17:16:15.986Z,2.41
2023-02-04T17:18:42.793Z,2.43
2023-02-04T17:21:10.009Z,2.44
2023-02-04T17:23:36.997Z,2.43
2023-02-04T17:26:04.651Z,2.43
2023-02-04T17:28:31.999Z,2.42
2023-02-04T17:30:58.762Z,2.36
2023-02-04T17:33:25.585Z,2.33
2023-02-04T17:35:52.503Z,2.34
2023-02-04T17:38:19.204Z,2.35
2023-02-04T17:40:46.275Z,2.34
2023-02-04T17:43:12.925Z,2.34
2023-02-04T17:45:40.110Z,2.33
2023-02-04T17:48:07.163Z,2.29
2023-02-04T17:53:03.714Z,2.29
2023-02-04T17:55:32.812Z,2.30
2023-02-04T17:58:00.405Z,2.28
2023-02-04T18:00:28.433Z,2.29
2023-02-04T18:02:55.440Z,2.27
2023-02-04T18:05:27.079Z,2.23
2023-02-04T18:08:13.889Z,2.22
2023-02-04T18:10:45.649Z,2.21
2023-02-04T18:13:13.984Z,2.19
2023-02-04T18:15:43.389Z,2.16
2023-02-04T18:18:21.742Z,2.11
2023-02-04T18:21:00.865Z,2.02
2023-02-04T18:23:29.435Z,1.91
2023-02-04T18:26:00.950Z,1.83
2023-02-04T18:28:27.806Z,1.77
2023-02-04T18:31:03.079Z,1.73
2023-02-04T18:33:29.846Z,1.71
2023-02-04T18:35:58.016Z,1.71
2023-02-04T18:38:31.608Z,1.72
2023-02-04T18:41:12.673Z,1.72
2023-02-04T18:43:39.546Z,1.70
2023-02-04T18:46:26.170Z,1.69
2023-02-04T18:49:01.402Z,1.73
2023-02-04T18:51:31.546Z,1.78
2023-02-04T18:54:01.032Z,1.79
2023-02-04T18:56:30.791Z,1.75
2023-02-04T18:58:57.349Z,1.69
2023-02-04T19:01:27.049Z,1.64
2023-02-04T19:03:55.596Z,1.62
2023-02-04T19:06:31.323Z,1.65
2023-02-04T19:09:29.857Z,1.66
2023-02-04T19:11:57.171Z,1.55
2023-02-04T19:14:38.344Z,1.48
2023-02-04T19:17:25.778Z,1.44
2023-02-04T19:20:00.141Z,1.39
2023-02-04T19:22:53.124Z,1.32
2023-02-04T19:25:33.532Z,1.21
2023-02-04T19:28:02.301Z,1.13
2023-02-04T19:30:29.702Z,1.06
2023-02-04T19:33:01.366Z,1.04
2023-02-04T19:35:34.853Z,1.06
2023-02-04T19:38:02.276Z,1.10
2023-02-04T19:40:34.339Z,1.08
2023-02-04T19:43:15.308Z,1.05
2023-02-04T19:45:42.224Z,0.98
2023-02-04T19:48:19.537Z,0.95
2023-02-04T19:50:46.396Z,0.95
2023-02-04T19:53:24.690Z,0.97
2023-02-04T19:55:52.049Z,0.96
2023-02-04T19:58:28.433Z,0.92
2023-02-04T20:01:02.927Z,0.93
2023-02-04T20:03:36.067Z,0.94
2023-02-04T20:06:09.322Z,0.96
2023-02-04T20:08:53.445Z,0.97
2023-02-04T20:11:29.238Z,0.99
2023-02-04T20:14:13.468Z,1.02
2023-02-04T20:16:57.544Z,1.06
2023-02-04T20:19:32.190Z,1.05
2023-02-04T20:22:17.336Z,1.04
2023-02-04T20:24:45.791Z,1.05
2023-02-04T20:27:21.241Z,1.02
2023-02-04T20:29:49.507Z,1.00
2023-02-04T20:32:25.624Z,1.01
2023-02-04T20:34:53.554Z,1.01
2023-02-04T20:37:25.907Z,0.96
2023-02-04T20:39:52.860Z,0.89
2023-02-04T20:42:32.459Z,0.79
2023-02-04T20:45:14.423Z,0.67
2023-02-04T20:47:44.204Z,0.67
2023-02-04T20:50:33.065Z,0.70
2023-02-04T20:53:05.775Z,0.77
2023-02-04T20:55:33.457Z,0.84
2023-02-04T20:58:20.939Z,0.91
2023-02-04T21:00:51.513Z,0.92
2023-02-04T21:03:23.442Z,0.89
2023-02-04T21:05:51.875Z,0.87
2023-02-04T21:08:23.751Z,0.90
2023-02-04T21:10:51.015Z,0.90
2023-02-04T21:13:17.756Z,0.87
2023-02-04T21:15:47.637Z,0.85
2023-02-04T21:18:14.720Z,0.82
2023-02-04T21:20:41.293Z,0.84
2023-02-04T21:23:08.675Z,0.85
2023-02-04T21:25:35.626Z,0.86
2023-02-04T21:28:04.512Z,0.90
2023-02-04T21:30:31.592Z,0.91
2023-02-04T21:32:59.356Z,0.87
2023-02-04T21:35:26.172Z,0.87
2023-02-04T21:37:54.137Z,0.85
2023-02-04T21:40:21.429Z,0.81
2023-02-04T21:42:48.718Z,0.77
2023-02-04T21:45:16.966Z,0.80
2023-02-04T21:47:44.819Z,0.81
2023-02-04T21:50:13.811Z,0.84
2023-02-04T21:52:41.787Z,0.90
2023-02-04T21:55:09.059Z,0.95
2023-02-04T21:57:36.896Z,0.92
2023-02-04T22:00:05.183Z,0.89
2023-02-04T22:02:32.098Z,0.89
2023-02-04T22:04:58.874Z,0.91
2023-02-04T22:07:25.498Z,0.91
2023-02-04T22:09:52.276Z,0.95
2023-02-04T22:12:19.165Z,0.99
2023-02-04T22:14:45.795Z,1.04
2023-02-04T22:17:12.570Z,1.08
2023-02-04T22:19:39.299Z,1.08
2023-02-04T22:22:05.953Z,1.10
2023-02-04T22:24:33.703Z,1.11
2023-02-04T22:27:00.374Z,1.13
2023-02-04T22:29:29.459Z,1.14
2023-02-04T22:31:56.058Z,1.08
2023-02-04T22:34:24.454Z,0.96
2023-02-04T22:36:52.582Z,0.88
2023-02-04T22:39:19.267Z,0.86
2023-02-04T22:41:46.414Z,0.86
2023-02-04T22:44:13.503Z,0.89
2023-02-04T22:46:40.281Z,0.95
2023-02-04T22:49:07.082Z,0.97
2023-02-04T22:51:34.694Z,0.98
2023-02-04T22:54:01.459Z,0.98
2023-02-04T22:56:28.054Z,0.98
2023-02-04T22:58:54.583Z,0.96
2023-02-04T23:01:21.186Z,0.97
2023-02-04T23:03:48.316Z,0.97
2023-02-04T23:06:15.284Z,0.96
2023-02-04T23:08:42.237Z,0.96
2023-02-04T23:11:11.247Z,0.91
2023-02-04T23:13:39.026Z,0.85
2023-02-04T23:16:06.349Z,0.81
2023-02-04T23:18:33.460Z,0.70
2023-02-04T23:21:00.331Z,0.61
2023-02-04T23:23:28.823Z,0.58
2023-02-04T23:25:55.802Z,0.61
2023-02-04T23:28:22.468Z,0.65
2023-02-04T23:30:52.154Z,0.68
2023-02-04T23:33:19.010Z,0.70
2023-02-04T23:35:45.612Z,0.74
2023-02-04T23:38:12.390Z,0.79
2023-02-04T23:40:39.267Z,0.80
2023-02-04T23:43:06.238Z,0.80
2023-02-04T23:45:33.295Z,0.75
2023-02-04T23:48:00.136Z,0.65
2023-02-04T23:50:26.849Z,0.60
2023-02-04T23:52:54.108Z,0.59
2023-02-04T23:55:20.701Z,0.58
2023-02-04T23:57:49.046Z,0.59
